Terminal Aerodrome Forecast
Issued by NWS

Home | Current Version | Previous Version | Text Only | Print | Product List | Glossary On
Versions: 1 2 3 4 5 6 7 8 9 10 11 12 13 14 15 16 17 18 19 20 21 22 23 24 25 26 27 28 29 30 31
000
FTUS46 KMTR 010100 AAA
TAFSFO
TAF AMD
KSFO 010154Z 0102/0206 01005KT P6SM VCTS SCT035 BKN080CB
      TEMPO 0102/0103 -TSRA BKN035CB
     FM010400 33005KT P6SM SCT030 BKN050
     FM011000 03004KT P6SM SCT035 BKN150
     FM012100 31008KT P6SM FEW035 SCT150
     FM020400 28006KT P6SM FEW025=

USA.gov is the U.S. government's official web portal to all federal, state and local government web resources and services.